Time;durP1;ratioP1;P1;durP2;ratioP2;P2;SDS_P1;SDS_P2;PMS_P1;PMS_P2;Temp;Humidity;BMP_temperature;BMP_pressure;BME280_temperature;BME280_humidity;BME280_pressure;Samples;Min_cycle;Max_cycle;Signal;HPM_P1;HPM_P2
2023/05/22 00:00:40;;;;;;;10.50;7.40;;;;;;;15.37;53.20;100785.88;112324;1243;23686;-79
2023/05/22 00:03:25;;;;;;;9.80;6.90;;;;;;;15.33;53.19;100783.95;112418;1242;21931;-79
2023/05/22 00:06:06;;;;;;;10.30;8.70;;;;;;;15.31;53.33;100780.69;111974;1248;21980;-80
2023/05/22 00:09:07;;;;;;;9.30;8.40;;;;;;;15.29;53.39;100779.23;112197;1248;21984;-80
2023/05/22 00:12:09;;;;;;;11.90;9.50;;;;;;;15.24;53.36;100782.98;112470;1244;22065;-79
2023/05/22 00:14:41;;;;;;;12.80;9.90;;;;;;;15.23;53.46;100784.63;112124;1244;23473;-78
2023/05/22 00:17:35;;;;;;;11.60;10.50;;;;;;;15.21;53.53;100778.91;111485;1250;22984;-81
2023/05/22 00:20:32;;;;;;;12.30;10.00;;;;;;;15.18;53.29;100778.35;111729;1250;23066;-79
2023/05/22 00:23:40;;;;;;;11.50;9.50;;;;;;;15.15;53.30;100776.40;111638;1243;22618;-79
2023/05/22 00:26:09;;;;;;;14.70;11.10;;;;;;;15.15;53.38;100773.98;112163;1243;23607;-78
2023/05/22 00:28:47;;;;;;;12.80;10.60;;;;;;;15.15;53.42;100768.39;112134;1244;23014;-78
2023/05/22 00:31:59;;;;;;;12.70;10.50;;;;;;;15.14;53.62;100771.05;112607;1244;21977;-80
2023/05/22 00:35:05;;;;;;;9.90;9.00;;;;;;;15.12;53.51;100772.89;111990;1243;23058;-77
2023/05/22 00:38:00;;;;;;;;;;;;;;;;;;;;;
2023/05/22 00:40:52;;;;;;;;;;;;;;;15.03;53.55;100773.17;111563;1249;21942;-80
2023/05/22 00:43:54;;;;;;;10.60;9.40;;;;;;;14.91;53.78;100772.20;111786;1250;21981;-80
2023/05/22 00:46:44;;;;;;;10.00;9.00;;;;;;;14.89;53.91;100772.46;111322;1251;21984;-82
2023/05/22 00:49:32;;;;;;;15.70;9.50;;;;;;;14.88;53.72;100767.27;111413;1251;23029;-79
2023/05/22 00:52:16;;;;;;;12.60;10.10;;;;;;;14.86;53.54;100768.39;111492;1245;22014;-77
2023/05/22 00:55:02;;;;;;;12.40;11.20;;;;;;;14.84;53.72;100764.82;111988;1245;21956;-82
2023/05/22 00:57:45;;;;;;;13.10;11.50;;;;;;;14.83;53.74;100769.23;111826;1245;22813;-79
2023/05/22 01:00:58;;;;;;;16.50;13.80;;;;;;;14.85;53.69;100767.40;111747;1245;23038;-79
2023/05/22 01:03:46;;;;;;;15.80;12.80;;;;;;;14.83;53.90;100765.06;111308;1255;22372;-78
2023/05/22 01:06:31;;;;;;;13.10;11.70;;;;;;;14.83;53.88;100761.90;111503;1251;21957;-78
2023/05/22 01:09:03;;;;;;;13.60;12.30;;;;;;;14.83;53.92;100762.07;111656;1251;22316;-81
2023/05/22 01:11:44;;;;;;;13.40;11.80;;;;;;;14.81;53.78;100763.39;111688;1251;21951;-79
2023/05/22 01:14:47;;;;;;;12.10;9.80;;;;;;;14.78;53.77;100763.55;111749;1251;22363;-80
2023/05/22 01:17:36;;;;;;;11.00;9.90;;;;;;;14.71;53.83;100765.25;112179;1245;23275;-78
2023/05/22 01:21:08;;;;;;;11.70;10.40;;;;;;;14.65;53.88;100762.92;112201;1245;21983;-81
2023/05/22 01:23:54;;;;;;;17.00;10.40;;;;;;;14.58;54.13;100761.17;113011;1240;22090;-78
2023/05/22 01:26:57;;;;;;;12.70;9.90;;;;;;;14.53;54.08;100761.02;112864;1240;21929;-77
2023/05/22 01:30:23;;;;;;;12.40;11.10;;;;;;;14.49;54.24;100764.39;111724;1247;23047;-78
2023/05/22 01:33:17;;;;;;;12.40;10.50;;;;;;;14.44;54.45;100770.05;111753;1251;21977;-81
2023/05/22 01:36:27;;;;;;;17.10;11.00;;;;;;;14.43;54.48;100770.27;111439;1251;21960;-79
2023/05/22 01:39:10;;;;;;;13.00;11.20;;;;;;;14.43;54.74;100769.89;110892;1257;22007;-76
2023/05/22 01:41:43;;;;;;;12.50;9.50;;;;;;;14.44;54.71;100769.48;111186;1253;22096;-77
2023/05/22 01:44:22;;;;;;;11.70;10.10;;;;;;;14.43;54.60;100765.89;111237;1253;21962;-78
2023/05/22 01:47:04;;;;;;;17.60;7.50;;;;;;;14.37;54.73;100763.52;111194;1253;23075;-79
2023/05/22 01:49:40;;;;;;;10.70;9.10;;;;;;;14.34;54.76;100765.42;110938;1256;22820;-79
2023/05/22 01:52:33;;;;;;;12.40;7.80;;;;;;;14.28;54.84;100764.48;110815;1258;23074;-78
2023/05/22 01:55:16;;;;;;;9.90;8.90;;;;;;;14.21;55.07;100763.93;110567;1262;23605;-77
2023/05/22 01:58:09;;;;;;;10.90;8.00;;;;;;;14.18;55.16;100761.45;111074;1255;21978;-79
2023/05/22 02:00:46;;;;;;;11.50;9.00;;;;;;;14.15;55.20;100760.55;111148;1255;21945;-80
2023/05/22 02:03:26;;;;;;;8.50;7.30;;;;;;;14.14;55.31;100757.95;110802;1258;21966;-79
2023/05/22 02:06:13;;;;;;;15.90;7.90;;;;;;;14.12;55.41;100751.23;110469;1259;21962;-79
2023/05/22 02:08:55;;;;;;;18.20;8.50;;;;;;;14.10;55.46;100753.05;110978;1259;22877;-78
2023/05/22 02:11:36;;;;;;;9.30;7.80;;;;;;;14.07;55.61;100752.52;111250;1254;22389;-78
2023/05/22 02:14:13;;;;;;;12.10;8.40;;;;;;;14.03;55.69;100750.92;111366;1250;23607;-78
2023/05/22 02:16:53;;;;;;;10.30;8.10;;;;;;;13.99;55.71;100748.49;110842;1256;22865;-78
2023/05/22 02:19:30;;;;;;;13.80;8.30;;;;;;;13.93;55.88;100748.58;111092;1256;21982;-78
2023/05/22 02:22:12;;;;;;;;;;;;;;;;;;;;;
2023/05/22 02:24:52;;;;;;;10.40;7.90;;;;;;;13.86;55.97;100748.38;111153;1254;21988;-78
2023/05/22 02:27:26;;;;;;;11.70;8.50;;;;;;;13.83;56.21;100743.77;110863;1254;22004;-78
2023/05/22 02:30:24;;;;;;;11.00;7.90;;;;;;;13.82;56.15;100749.42;111320;1254;22712;-78
2023/05/22 02:33:04;;;;;;;9.30;6.80;;;;;;;13.81;56.29;100745.29;111766;1241;21953;-83
2023/05/22 02:35:46;;;;;;;17.00;7.90;;;;;;;13.82;56.40;100746.09;111996;1244;21986;-78
2023/05/22 02:38:16;;;;;;;9.30;7.80;;;;;;;13.82;56.31;100748.54;112346;1244;22010;-77
2023/05/22 02:41:01;;;;;;;9.50;8.60;;;;;;;13.81;56.30;100748.39;112054;1244;21967;-81
2023/05/22 02:43:40;;;;;;;11.30;8.10;;;;;;;13.79;56.25;100749.73;112533;1243;22444;-81
2023/05/22 02:46:12;;;;;;;14.40;9.10;;;;;;;13.79;56.33;100748.35;111911;1242;22718;-79
2023/05/22 02:48:44;;;;;;;;;;;;;;;13.77;56.26;100747.37;111727;1249;22695;-78
2023/05/22 02:51:15;;;;;;;9.30;8.30;;;;;;;13.66;56.60;100745.41;111349;1254;23704;-78
2023/05/22 02:53:47;;;;;;;14.00;9.00;;;;;;;13.67;56.59;100745.20;111531;1254;22275;-79
2023/05/22 02:56:30;;;;;;;10.60;9.60;;;;;;;13.68;56.63;100746.86;111410;1253;21974;-80
2023/05/22 02:59:09;;;;;;;16.20;11.30;;;;;;;13.71;56.62;100746.92;111428;1253;22040;-79
2023/05/22 03:01:47;;;;;;;11.30;10.10;;;;;;;13.77;56.64;100745.61;111182;1252;23128;-79
2023/05/22 03:04:28;;;;;;;11.10;9.30;;;;;;;13.79;56.63;100741.00;111243;1254;23718;-79
2023/05/22 03:07:07;;;;;;;15.20;9.90;;;;;;;13.82;56.53;100742.10;111460;1246;23600;-80
2023/05/22 03:09:44;;;;;;;13.20;8.90;;;;;;;13.83;56.53;100739.74;111627;1251;22468;-80
2023/05/22 03:12:31;;;;;;;9.90;8.60;;;;;;;13.84;56.48;100741.12;111137;1255;21974;-78
2023/05/22 03:15:05;;;;;;;12.60;8.50;;;;;;;13.86;56.50;100740.68;110775;1254;22844;-78
2023/05/22 03:17:50;;;;;;;10.30;8.20;;;;;;;13.89;56.46;100741.95;111096;1254;22855;-77
2023/05/22 03:20:23;;;;;;;10.70;9.10;;;;;;;13.94;56.45;100746.64;111038;1254;22991;-78
2023/05/22 03:22:53;;;;;;;17.80;13.00;;;;;;;14.00;56.33;100741.81;111447;1249;21948;-79
2023/05/22 03:25:25;;;;;;;14.50;10.90;;;;;;;14.04;56.40;100737.91;111406;1249;24287;-78
2023/05/22 03:27:57;;;;;;;13.20;8.20;;;;;;;14.09;56.40;100740.64;111414;1250;21977;-79
2023/05/22 03:30:34;;;;;;;11.10;7.40;;;;;;;14.14;56.40;100738.18;111829;1245;21957;-78
2023/05/22 03:33:11;;;;;;;14.00;7.20;;;;;;;14.15;56.21;100740.72;112338;1240;21985;-79
2023/05/22 03:35:43;;;;;;;11.30;7.20;;;;;;;14.17;56.28;100740.47;112494;1240;23861;-79
2023/05/22 03:38:17;;;;;;;12.60;8.60;;;;;;;14.18;56.18;100737.30;111792;1244;23603;-79
2023/05/22 03:40:53;;;;;;;10.90;7.80;;;;;;;14.18;56.05;100736.60;112328;1244;21948;-78
2023/05/22 03:43:24;;;;;;;10.00;7.30;;;;;;;14.16;55.90;100732.30;112276;1244;22558;-78
2023/05/22 03:45:57;;;;;;;;;;;;;;;14.15;56.05;100730.94;112025;1244;23156;-77
2023/05/22 03:48:36;;;;;;;11.10;7.30;;;;;;;14.10;56.32;100733.10;112244;1244;21959;-77
2023/05/22 03:51:11;;;;;;;11.80;7.30;;;;;;;14.14;56.39;100734.67;111958;1244;21977;-75
2023/05/22 03:53:55;;;;;;;9.40;7.20;;;;;;;14.20;56.35;100733.54;112905;1238;21968;-78
2023/05/22 03:56:27;;;;;;;9.80;7.20;;;;;;;14.25;56.35;100734.32;112282;1239;22018;-77
2023/05/22 03:58:56;;;;;;;9.00;6.90;;;;;;;14.30;56.28;100736.73;112717;1239;23927;-76
2023/05/22 04:01:30;;;;;;;11.40;7.20;;;;;;;14.31;56.12;100734.73;111976;1243;21965;-79
2023/05/22 04:04:12;;;;;;;10.20;7.20;;;;;;;14.34;56.17;100733.21;111613;1249;23047;-78
2023/05/22 04:06:53;;;;;;;13.20;7.20;;;;;;;14.35;56.24;100733.14;111313;1254;21982;-78
2023/05/22 04:09:34;;;;;;;11.00;7.20;;;;;;;14.37;56.20;100732.19;111082;1257;23636;-78
2023/05/22 04:12:10;;;;;;;9.70;6.60;;;;;;;14.38;56.02;100733.36;110886;1257;22914;-78
2023/05/22 04:14:50;;;;;;;10.60;7.10;;;;;;;14.40;55.96;100736.09;110633;1257;21966;-80
2023/05/22 04:17:32;;;;;;;10.20;7.20;;;;;;;14.42;56.10;100736.52;110932;1257;21967;-79
2023/05/22 04:20:15;;;;;;;11.70;7.00;;;;;;;14.48;56.27;100732.55;111113;1254;21971;-78
2023/05/22 04:22:45;;;;;;;12.00;6.70;;;;;;;14.56;56.25;100732.19;111739;1250;22388;-78
2023/05/22 04:25:24;;;;;;;9.70;7.50;;;;;;;14.64;56.28;100728.65;111796;1244;24323;-78
2023/05/22 04:28:07;;;;;;;9.00;7.50;;;;;;;14.70;56.09;100728.00;112318;1239;21946;-78
2023/05/22 04:30:59;;;;;;;11.00;7.10;;;;;;;14.75;55.95;100727.79;112811;1239;23006;-79
2023/05/22 04:34:01;;;;;;;11.10;7.30;;;;;;;14.77;55.87;100726.95;113534;1233;21888;-78
2023/05/22 04:37:09;;;;;;;11.60;7.30;;;;;;;14.82;55.94;100730.39;113437;1233;22750;-79
2023/05/22 04:40:06;;;;;;;7.90;7.00;;;;;;;14.94;55.96;100730.51;112816;1239;22434;-79
2023/05/22 04:43:01;;;;;;;9.70;7.20;;;;;;;15.07;55.74;100726.19;112569;1239;21987;-80
2023/05/22 04:46:28;;;;;;;9.30;7.60;;;;;;;15.15;55.40;100724.86;112586;1238;23123;-78
2023/05/22 04:49:16;;;;;;;13.40;8.00;;;;;;;15.30;55.53;100722.91;113058;1239;22720;-79
2023/05/22 04:51:57;;;;;;;8.00;7.20;;;;;;;15.51;55.57;100723.73;112646;1239;22592;-80
2023/05/22 04:55:12;;;;;;;10.50;7.20;;;;;;;15.78;55.32;100726.04;111940;1242;23017;-78
2023/05/22 04:58:06;;;;;;;10.50;6.90;;;;;;;16.13;54.90;100723.41;112466;1240;21931;-78
2023/05/22 05:01:02;;;;;;;11.70;7.60;;;;;;;16.51;54.36;100721.14;112799;1240;22040;-77
2023/05/22 05:03:53;;;;;;;9.40;7.60;;;;;;;16.98;53.95;100722.54;112802;1240;22058;-79
2023/05/22 05:06:25;;;;;;;7.60;7.00;;;;;;;17.50;53.12;100724.15;112736;1238;21940;-78
2023/05/22 05:08:55;;;;;;;9.70;7.30;;;;;;;18.04;52.54;100725.08;112950;1240;22106;-75
2023/05/22 05:11:48;;;;;;;14.20;8.70;;;;;;;18.62;50.99;100724.38;112540;1234;23698;-77
2023/05/22 05:14:25;;;;;;;8.80;7.10;;;;;;;19.11;50.06;100725.93;112415;1241;22872;-80
2023/05/22 05:17:22;;;;;;;10.60;7.40;;;;;;;19.64;49.05;100728.14;112661;1235;23120;-79
2023/05/22 05:19:57;;;;;;;8.30;7.10;;;;;;;20.21;48.10;100728.69;112685;1241;22417;-80
2023/05/22 05:23:09;;;;;;;10.10;7.40;;;;;;;20.62;46.77;100736.13;112244;1245;21950;-82
2023/05/22 05:25:46;;;;;;;11.70;7.50;;;;;;;20.90;45.44;100733.39;112189;1245;21970;-78
2023/05/22 05:28:23;;;;;;;8.10;7.20;;;;;;;21.17;45.08;100731.85;111973;1245;23674;-80
2023/05/22 05:31:06;;;;;;;11.70;7.50;;;;;;;21.36;44.15;100730.04;111660;1250;21733;-80
2023/05/22 05:34:30;;;;;;;8.60;7.80;;;;;;;21.60;44.01;100730.35;112472;1243;23686;-79
2023/05/22 05:37:17;;;;;;;9.20;7.10;;;;;;;21.93;43.37;100731.71;112371;1243;22572;-78
2023/05/22 05:39:55;;;;;;;8.10;6.90;;;;;;;22.08;42.52;100734.95;112312;1240;22265;-79
2023/05/22 05:42:48;;;;;;;11.60;8.40;;;;;;;22.07;42.15;100732.69;112551;1240;23574;-80
2023/05/22 05:45:45;;;;;;;11.50;8.40;;;;;;;22.12;42.23;100725.23;112389;1240;23643;-81
2023/05/22 05:48:21;;;;;;;12.00;7.80;;;;;;;22.21;41.88;100718.95;112665;1233;22823;-80
2023/05/22 05:51:12;;;;;;;10.40;8.20;;;;;;;22.34;41.72;100718.83;113376;1233;21971;-78
2023/05/22 05:54:10;;;;;;;9.20;7.80;;;;;;;22.64;41.46;100719.23;113552;1233;22933;-78
2023/05/22 05:56:51;;;;;;;9.60;8.70;;;;;;;22.95;40.59;100719.45;113216;1233;23682;-82
2023/05/22 05:59:30;;;;;;;10.70;8.70;;;;;;;23.16;40.01;100720.38;113479;1233;24270;-80
2023/05/22 06:02:27;;;;;;;10.70;7.10;;;;;;;23.39;39.49;100721.60;113092;1239;21956;-80
2023/05/22 06:05:14;;;;;;;9.70;8.20;;;;;;;23.69;38.98;100718.83;112567;1244;21973;-80
2023/05/22 06:08:06;;;;;;;15.70;9.40;;;;;;;23.97;38.83;100728.89;112444;1244;21958;-80
2023/05/22 06:10:56;;;;;;;7.80;7.10;;;;;;;24.23;38.11;100727.64;111748;1250;22067;-80
2023/05/22 06:14:07;;;;;;;7.40;6.60;;;;;;;24.26;36.74;100720.79;111358;1249;23691;-81
2023/05/22 06:16:54;;;;;;;9.80;6.70;;;;;;;24.47;37.27;100720.52;111505;1250;23664;-81
2023/05/22 06:19:29;;;;;;;14.40;6.60;;;;;;;24.85;36.58;100719.70;111959;1245;21965;-80
2023/05/22 06:22:27;;;;;;;8.00;5.90;;;;;;;25.00;35.90;100718.41;111978;1245;21987;-81
2023/05/22 06:25:01;;;;;;;7.50;4.90;;;;;;;25.17;36.08;100712.91;112897;1240;21959;-80
2023/05/22 06:27:46;;;;;;;8.80;4.60;;;;;;;25.52;35.27;100709.96;112568;1240;23466;-82
2023/05/22 06:30:31;;;;;;;7.80;5.20;;;;;;;25.81;34.63;100707.86;113721;1233;21955;-80
2023/05/22 06:33:09;;;;;;;6.40;4.30;;;;;;;26.10;34.20;100700.81;113527;1233;23691;-81
2023/05/22 06:35:56;;;;;;;5.90;4.70;;;;;;;26.48;33.98;100702.46;113432;1233;21891;-81
2023/05/22 06:38:39;;;;;;;7.70;4.40;;;;;;;26.64;32.85;100706.75;113413;1233;21978;-81
2023/05/22 06:41:36;;;;;;;11.20;4.10;;;;;;;26.76;32.53;100708.56;113509;1233;21933;-80
2023/05/22 06:44:21;;;;;;;10.90;4.20;;;;;;;26.80;31.88;100708.23;112963;1233;21940;-80
2023/05/22 06:47:08;;;;;;;7.20;4.50;;;;;;;26.70;31.69;100709.55;113608;1233;21940;-81
2023/05/22 06:49:56;;;;;;;5.10;3.60;;;;;;;26.41;31.45;100708.99;113206;1233;21986;-81
2023/05/22 06:52:59;;;;;;;;;;;;;;;;;;;;;
2023/05/22 06:56:00;;;;;;;7.30;4.20;;;;;;;25.80;32.28;100713.54;113534;1233;23041;-81
2023/05/22 06:58:59;;;;;;;;;;;;;;;;;;;;;
2023/05/22 07:02:21;;;;;;;6.30;4.30;;;;;;;25.53;32.93;100715.86;112719;1239;21996;-79
2023/05/22 07:05:33;;;;;;;11.20;3.40;;;;;;;25.73;33.49;100710.46;113105;1239;21957;-79
2023/05/22 07:08:10;;;;;;;9.20;4.00;;;;;;;26.20;33.33;100714.14;112716;1239;22122;-79
2023/05/22 07:10:50;;;;;;;7.80;3.70;;;;;;;26.63;32.00;100716.65;113018;1239;23681;-80
2023/05/22 07:13:50;;;;;;;;;;;;;;;;;;;;;
2023/05/22 07:16:32;;;;;;;;;;;;;;;26.77;31.17;100711.13;113140;1239;21972;-81
2023/05/22 07:19:05;;;;;;;9.70;3.70;;;;;;;26.82;31.28;100707.44;112843;1233;23587;-80
2023/05/22 07:22:10;;;;;;;6.10;3.90;;;;;;;26.91;31.11;100708.88;112616;1240;21957;-81
2023/05/22 07:25:28;;;;;;;9.60;4.20;;;;;;;26.95;30.88;100708.61;112511;1244;21994;-80
2023/05/22 07:28:08;;;;;;;;;;;;;;;26.70;30.83;100709.61;112224;1244;21951;-80
2023/05/22 07:31:00;;;;;;;8.50;3.50;;;;;;;26.47;31.43;100706.14;111831;1250;21975;-79
2023/05/22 07:33:54;;;;;;;5.20;3.90;;;;;;;26.32;31.47;100707.46;111853;1250;22765;-80
2023/05/22 07:36:54;;;;;;;7.70;4.70;;;;;;;26.19;31.84;100709.97;111441;1254;21978;-81
2023/05/22 07:39:31;;;;;;;10.50;4.30;;;;;;;26.30;32.34;100707.08;110967;1254;23590;-79
2023/05/22 07:42:03;;;;;;;5.80;4.20;;;;;;;26.45;31.89;100709.15;111223;1253;21973;-80
2023/05/22 07:44:39;;;;;;;4.80;3.40;;;;;;;26.53;31.41;100708.23;109514;1253;2438862;-81
2023/05/22 07:47:12;;;;;;;7.90;3.40;;;;;;;26.64;31.22;100711.96;110996;1257;23627;-78
2023/05/22 07:49:53;;;;;;;6.10;3.60;;;;;;;26.81;30.17;100714.89;111309;1253;21977;-81
2023/05/22 07:52:37;;;;;;;3.90;3.30;;;;;;;26.62;29.59;100708.92;111145;1253;23153;-80
2023/05/22 07:55:16;;;;;;;4.70;3.60;;;;;;;26.61;29.75;100711.52;111759;1244;21970;-81
2023/05/22 07:58:03;;;;;;;8.10;3.90;;;;;;;26.80;29.89;100713.21;112270;1244;21976;-80
2023/05/22 08:00:39;;;;;;;7.90;3.40;;;;;;;27.04;29.72;100712.86;112097;1244;22954;-81
2023/05/22 08:03:22;;;;;;;8.60;3.00;;;;;;;27.30;29.52;100711.71;112274;1238;23702;-79
2023/05/22 08:06:05;;;;;;;4.70;2.50;;;;;;;27.46;29.13;100713.16;112680;1239;21977;-79
2023/05/22 08:08:53;;;;;;;3.60;2.90;;;;;;;27.54;28.37;100714.95;112980;1239;23588;-81
2023/05/22 08:11:34;;;;;;;8.60;3.30;;;;;;;27.55;27.66;100709.27;112693;1239;21946;-80
2023/05/22 08:14:11;;;;;;;5.70;3.50;;;;;;;27.53;27.82;100707.23;112501;1243;23555;-81
2023/05/22 08:16:45;;;;;;;5.60;3.00;;;;;;;27.54;27.72;100707.30;112388;1243;23591;-80
2023/05/22 08:19:25;;;;;;;7.00;2.60;;;;;;;27.43;27.56;100703.77;111983;1248;21951;-80
2023/05/22 08:22:06;;;;;;;7.90;3.10;;;;;;;27.35;27.54;100705.73;111406;1254;23559;-81
2023/05/22 08:24:39;;;;;;;5.30;3.40;;;;;;;27.29;27.94;100705.08;111780;1248;21958;-81
2023/05/22 08:27:17;;;;;;;6.80;2.70;;;;;;;27.36;27.92;100705.77;112111;1248;21965;-80
2023/05/22 08:29:58;;;;;;;5.70;2.40;;;;;;;27.41;27.07;100703.95;111926;1248;22717;-81
2023/05/22 08:32:42;;;;;;;5.20;2.90;;;;;;;27.45;26.51;100705.71;112102;1244;24278;-81
2023/05/22 08:35:30;;;;;;;7.10;3.10;;;;;;;27.60;25.71;100701.83;111788;1248;21982;-80
2023/05/22 08:38:09;;;;;;;4.30;2.90;;;;;;;27.64;25.08;100699.09;112127;1244;23583;-79
2023/05/22 08:41:00;;;;;;;5.70;2.80;;;;;;;27.71;25.69;100703.89;112154;1243;22956;-81
2023/05/22 08:43:31;;;;;;;6.10;2.20;;;;;;;27.74;24.78;100699.27;111981;1248;21981;-81
2023/05/22 08:46:16;;;;;;;4.70;2.20;;;;;;;27.79;24.74;100701.08;112070;1248;22018;-80
2023/05/22 08:48:47;;;;;;;7.00;2.20;;;;;;;27.78;24.48;100697.92;111791;1247;23629;-81
2023/05/22 08:51:41;;;;;;;4.40;2.60;;;;;;;27.81;24.26;100692.33;112179;1247;21985;-79
2023/05/22 08:54:12;;;;;;;6.10;2.90;;;;;;;27.90;24.32;100689.70;111957;1248;22444;-84
2023/05/22 08:56:52;;;;;;;3.00;2.20;;;;;;;28.04;23.89;100689.58;112070;1248;22345;-82
2023/05/22 08:59:35;;;;;;;5.20;2.20;;;;;;;28.03;23.84;100696.65;112305;1239;21989;-79
2023/05/22 09:02:05;;;;;;;7.50;2.80;;;;;;;27.86;23.44;100689.46;113538;1233;23671;-80
2023/05/22 09:04:35;;;;;;;4.20;1.80;;;;;;;27.82;23.14;100689.33;113882;1231;22329;-82
2023/05/22 09:07:07;;;;;;;2.70;1.80;;;;;;;27.68;23.13;100690.03;113596;1233;21911;-78
2023/05/22 09:09:40;;;;;;;4.50;2.40;;;;;;;27.57;23.10;100692.80;113298;1233;23617;-77
2023/05/22 09:13:02;;;;;;;7.90;3.20;;;;;;;27.60;22.98;100686.64;113299;1233;21938;-78
2023/05/22 09:15:42;;;;;;;5.80;2.10;;;;;;;27.68;23.25;100682.89;113764;1233;22002;-79
2023/05/22 09:18:14;;;;;;;6.90;2.80;;;;;;;27.85;22.70;100681.13;112764;1240;23049;-80
2023/05/22 09:20:47;;;;;;;5.00;1.90;;;;;;;27.77;22.68;100675.89;111924;1245;21983;-78
2023/05/22 09:23:38;;;;;;;9.00;2.50;;;;;;;27.78;22.40;100675.63;112155;1245;23725;-80
2023/05/22 09:26:20;;;;;;;8.60;3.40;;;;;;;27.71;22.35;100670.27;111934;1245;22417;-79
2023/05/22 09:29:19;;;;;;;10.50;2.40;;;;;;;27.80;22.62;100671.67;111753;1250;23883;-77
2023/05/22 09:32:08;;;;;;;;;;;;;;;;;;;;;
2023/05/22 09:35:26;;;;;;;7.50;4.40;;;;;;;27.16;22.32;100664.85;111578;1250;23022;-80
2023/05/22 09:38:06;;;;;;;4.50;2.60;;;;;;;27.22;22.04;100666.73;112260;1239;21967;-78
2023/05/22 09:40:41;;;;;;;3.80;2.00;;;;;;;27.25;22.30;100669.72;111942;1243;21958;-77
2023/05/22 09:44:06;;;;;;;5.10;2.30;;;;;;;27.23;22.01;100665.09;111865;1244;23682;-78
2023/05/22 09:47:22;;;;;;;2.60;2.10;;;;;;;27.42;22.70;100660.05;112915;1240;21907;-79
2023/05/22 09:50:07;;;;;;;4.70;2.60;;;;;;;27.54;22.64;100660.12;112918;1238;23047;-78
2023/05/22 09:52:45;;;;;;;5.50;2.20;;;;;;;27.64;23.33;100658.84;112685;1237;23012;-79
2023/05/22 09:55:16;;;;;;;4.50;2.40;;;;;;;27.83;23.10;100659.88;112118;1245;21951;-78
2023/05/22 09:58:01;;;;;;;7.30;2.70;;;;;;;27.99;23.41;100652.10;111862;1245;22872;-78
2023/05/22 10:00:35;;;;;;;6.50;2.70;;;;;;;28.11;23.09;100653.18;111919;1245;21952;-81
2023/05/22 10:03:14;;;;;;;3.40;2.60;;;;;;;28.09;23.13;100652.70;112265;1245;21968;-80
2023/05/22 10:05:52;;;;;;;4.70;2.40;;;;;;;28.00;23.15;100648.86;112381;1245;22000;-80
2023/05/22 10:08:35;;;;;;;5.50;2.70;;;;;;;27.99;23.50;100637.85;111650;1249;21986;-80
2023/05/22 10:11:09;;;;;;;7.50;2.60;;;;;;;27.98;23.32;100634.36;111834;1249;21987;-77
2023/05/22 10:13:41;;;;;;;4.90;2.50;;;;;;;27.87;23.48;100637.67;112096;1244;21949;-77
2023/05/22 10:16:15;;;;;;;3.60;2.50;;;;;;;27.81;23.51;100635.95;112702;1239;21954;-79
2023/05/22 10:18:48;;;;;;;7.20;3.70;;;;;;;27.78;23.46;100631.40;112829;1238;21944;-80
2023/05/22 10:21:19;;;;;;;5.30;2.50;;;;;;;27.75;23.45;100638.02;112419;1239;22474;-78
2023/05/22 10:23:51;;;;;;;4.80;2.50;;;;;;;27.75;23.76;100629.31;112809;1239;21985;-77
2023/05/22 10:26:20;;;;;;;;;;;;;;;27.71;23.29;100627.90;112789;1234;21931;-77
2023/05/22 10:29:09;;;;;;;7.70;2.50;;;;;;;27.47;23.39;100631.16;112651;1240;23686;-78
2023/05/22 10:32:10;;;;;;;9.60;3.30;;;;;;;27.20;23.85;100630.21;111570;1246;22000;-78
2023/05/22 10:35:39;;;;;;;4.70;2.50;;;;;;;26.89;23.94;100621.53;111405;1251;23581;-78
2023/05/22 10:38:43;;;;;;;5.90;2.80;;;;;;;26.74;24.45;100615.41;111009;1256;22245;-78
2023/05/22 10:41:25;;;;;;;4.50;2.60;;;;;;;26.88;24.96;100614.05;111369;1256;21972;-80
2023/05/22 10:43:57;;;;;;;5.70;2.80;;;;;;;26.88;24.35;100610.43;110501;1262;23153;-81
2023/05/22 10:46:39;;;;;;;4.90;2.30;;;;;;;26.62;24.13;100607.20;110585;1254;21997;-80
2023/05/22 10:49:20;;;;;;;5.30;2.30;;;;;;;26.32;24.42;100609.81;110799;1255;23602;-83
2023/05/22 10:51:57;;;;;;;5.60;2.60;;;;;;;25.98;24.48;100604.11;111332;1255;23815;-81
2023/05/22 10:54:52;;;;;;;4.30;2.80;;;;;;;25.67;24.84;100600.86;111348;1255;22030;-80
2023/05/22 10:57:23;;;;;;;5.70;2.60;;;;;;;25.42;25.27;100595.69;111360;1255;22008;-80
2023/05/22 11:00:12;;;;;;;6.50;2.70;;;;;;;25.35;25.69;100596.83;111208;1255;23989;-79
2023/05/22 11:02:48;;;;;;;5.50;2.60;;;;;;;25.25;25.72;100598.48;111691;1250;21975;-81
2023/05/22 11:05:24;;;;;;;7.40;3.00;;;;;;;25.10;25.78;100597.43;111923;1250;23038;-80
2023/05/22 11:08:31;;;;;;;5.30;2.90;;;;;;;24.96;25.93;100594.27;111959;1248;21932;-82
2023/05/22 11:11:11;;;;;;;4.90;2.70;;;;;;;24.75;25.71;100590.95;111897;1250;22016;-80
2023/05/22 11:14:07;;;;;;;7.40;2.90;;;;;;;24.48;26.28;100580.29;111979;1249;23028;-79
2023/05/22 11:17:11;;;;;;;6.90;2.60;;;;;;;24.49;26.70;100575.41;112435;1242;24369;-83
2023/05/22 11:23:41;;;;;;;3.70;2.40;;;;;;;24.17;26.83;100579.68;111874;1248;21957;-78
2023/05/22 11:26:23;;;;;;;;;;;;;;;24.27;27.24;100573.84;111756;1248;23018;-80
2023/05/22 11:29:18;;;;;;;6.40;2.60;;;;;;;24.31;27.10;100574.88;111597;1249;23044;-79
2023/05/22 11:31:49;;;;;;;8.80;2.30;;;;;;;24.27;26.94;100582.58;111693;1247;21969;-79
2023/05/22 11:34:20;;;;;;;7.10;2.90;;;;;;;24.18;27.32;100570.92;111821;1247;23708;-80
2023/05/22 11:36:51;;;;;;;9.50;3.30;;;;;;;24.23;27.65;100569.01;111789;1252;21955;-78
2023/05/22 11:39:27;;;;;;;6.20;2.50;;;;;;;24.31;27.34;100563.30;111298;1252;22326;-80
2023/05/22 11:41:56;;;;;;;3.70;2.40;;;;;;;24.28;27.28;100562.18;111146;1257;22440;-77
2023/05/22 11:44:30;;;;;;;10.50;2.80;;;;;;;24.28;27.69;100564.80;111103;1257;22024;-81
2023/05/22 11:47:12;;;;;;;6.80;2.70;;;;;;;24.31;27.60;100564.18;111124;1256;22107;-83
2023/05/22 11:49:48;;;;;;;3.70;2.30;;;;;;;24.23;27.54;100565.54;111108;1260;21971;-81
2023/05/22 11:52:18;;;;;;;8.10;2.90;;;;;;;24.19;27.93;100560.48;110758;1265;22234;-81
2023/05/22 11:54:50;;;;;;;5.50;2.60;;;;;;;24.31;27.91;100563.02;110701;1261;22045;-85
2023/05/22 11:57:24;;;;;;;4.10;2.40;;;;;;;24.34;27.57;100565.92;110646;1266;21987;-84
2023/05/22 11:59:54;;;;;;;2.60;2.20;;;;;;;24.22;27.52;100558.79;110578;1255;22135;-85
2023/05/22 12:02:26;;;;;;;5.40;2.20;;;;;;;24.16;27.64;100547.79;111492;1255;21984;-81
2023/05/22 12:05:03;;;;;;;7.10;2.40;;;;;;;24.15;27.53;100545.91;111654;1252;22274;-83
2023/05/22 12:07:32;;;;;;;5.60;2.40;;;;;;;24.10;27.49;100543.06;111808;1245;22441;-82
2023/05/22 12:10:05;;;;;;;5.60;2.70;;;;;;;24.11;27.69;100540.81;112382;1245;21985;-83
2023/05/22 12:12:38;;;;;;;6.20;2.10;;;;;;;24.21;27.92;100542.94;112338;1245;22181;-84
2023/05/22 12:15:09;;;;;;;7.50;2.50;;;;;;;24.28;27.38;100539.02;112347;1239;21967;-85
2023/05/22 12:17:39;;;;;;;4.90;2.50;;;;;;;24.27;27.24;100539.17;113047;1234;21958;-85
2023/05/22 12:20:13;;;;;;;7.90;2.50;;;;;;;24.26;27.19;100539.79;113544;1234;21936;-85
2023/05/22 12:23:01;;;;;;;6.40;2.20;;;;;;;24.25;27.02;100537.91;113579;1235;21928;31
2023/05/22 12:25:38;;;;;;;2.90;1.80;;;;;;;24.18;26.91;100535.05;113494;1238;21963;-85
2023/05/22 12:28:08;;;;;;;5.70;2.10;;;;;;;24.14;27.03;100532.86;113107;1238;21979;-83
2023/05/22 12:30:45;;;;;;;3.90;2.00;;;;;;;24.21;27.22;100529.95;113127;1238;23493;-82
2023/05/22 12:33:18;;;;;;;7.00;2.30;;;;;;;24.27;26.93;100527.83;113287;1238;21981;-83
2023/05/22 12:35:59;;;;;;;6.00;2.70;;;;;;;24.26;26.97;100536.79;113141;1238;24292;-84
2023/05/22 12:38:30;;;;;;;5.20;2.30;;;;;;;24.26;26.99;100525.76;112344;1244;21951;-80
2023/05/22 12:41:02;;;;;;;3.80;2.20;;;;;;;24.35;26.99;100525.13;112398;1244;22461;-81
2023/05/22 12:43:34;;;;;;;5.80;2.40;;;;;;;24.40;26.79;100521.73;111911;1249;21995;-84